»·PEaware :: BEE185 KGCC-KBFF

BEE185 :: KGCC-KBFF

FLIGHT INFORMATION

Flight Status: Arrived
Operator:
Flybe
More flights by this operator :: More flights under this callsign
Pilot: Andrew N. (12823)
Aircraft: BEECH AIRCRAFT BEECH AIRLINER
(B190)
More flights by this aircraft type
Origin: KGCC Gillette-Campbell Co
United States
Destination: KBFF Heilig
United States
More flights between these airports :: More routes between these airports
Route: GCC V254 IIP V247 BFF
File this flight plan on PilotEdge
Remarks:
Altitude:
(Current/Filed)
12,000ft
Speed:
(Current/Filed)
200kts
Departed: 11-Jan-17 02:13 PM
Arrived: 11-Jan-17 03:02 PM
Distance/Time
Traveled:
171nm/0:48
Distance/Time
To Go:
Arrived

Flight Plot

Page will automatically refresh every two minutes.


Map Options




Map Legend


Flown Route
Filed Route
Departure Airport
Arrival Airport
Navaid (VOR, NDB)
Fix

Horizontal Profiles

Position Reports

Time Latitude Longitude Heading Altitude Ground
Speed
11-Jan-17 14:08 44.356877 -105.543886 169 4328ft 0kts
11-Jan-17 14:09 44.355791 -105.543595 164 4326ft 0kts
11-Jan-17 14:10 44.355791 -105.543595 164 4326ft 0kts
11-Jan-17 14:11 44.355791 -105.543595 164 4326ft 0kts
11-Jan-17 14:12 44.355791 -105.543595 164 4326ft 0kts
11-Jan-17 14:13 44.349596 -105.542026 167 4326ft 119kts
11-Jan-17 14:14 44.303976 -105.534746 171 6028ft 194kts
11-Jan-17 14:15 44.250445 -105.524796 172 7950ft 200kts
11-Jan-17 14:16 44.197945 -105.514794 171 9907ft 183kts
11-Jan-17 14:17 44.149291 -105.505374 171 11811ft 182kts
11-Jan-17 14:18 44.089507 -105.493216 186 11928ft 243kts
11-Jan-17 14:19 44.019665 -105.480361 184 11917ft 264kts
11-Jan-17 14:20 43.946618 -105.466220 183 11915ft 269kts
11-Jan-17 14:21 43.874117 -105.452289 183 11911ft 270kts
11-Jan-17 14:22 43.800004 -105.438478 183 11910ft 270kts
11-Jan-17 14:23 43.725977 -105.424959 176 11903ft 273kts
11-Jan-17 14:24 43.651635 -105.409818 183 11911ft 270kts
11-Jan-17 14:25 43.577036 -105.395794 183 11931ft 270kts
11-Jan-17 14:26 43.503280 -105.381970 183 11970ft 269kts
11-Jan-17 14:27 43.429706 -105.368041 183 11968ft 269kts
11-Jan-17 14:28 43.355751 -105.355042 176 11914ft 273kts
11-Jan-17 14:29 43.283237 -105.340616 170 11852ft 262kts
11-Jan-17 14:30 43.212813 -105.326649 170 11851ft 253kts
11-Jan-17 14:31 43.143720 -105.313572 171 11852ft 250kts
11-Jan-17 14:32 43.075136 -105.300733 171 11853ft 250kts
11-Jan-17 14:33 43.006739 -105.287965 171 11853ft 249kts
11-Jan-17 14:34 42.938423 -105.275250 171 11853ft 249kts
11-Jan-17 14:35 42.871811 -105.262840 171 11853ft 249kts
11-Jan-17 14:36 42.803296 -105.250110 171 11853ft 250kts
11-Jan-17 14:37 42.734913 -105.237461 171 11853ft 250kts
11-Jan-17 14:38 42.674040 -105.207797 115 11867ft 241kts
11-Jan-17 14:39 42.649887 -105.122601 109 11853ft 244kts
11-Jan-17 14:40 42.627759 -105.037335 108 11852ft 245kts
11-Jan-17 14:41 42.605415 -104.950549 108 11852ft 245kts
11-Jan-17 14:42 42.586675 -104.877355 109 11866ft 238kts
11-Jan-17 14:43 42.564875 -104.793633 109 11874ft 236kts
11-Jan-17 14:44 42.543077 -104.709779 109 11878ft 236kts
11-Jan-17 14:45 42.521336 -104.626371 109 11878ft 235kts
11-Jan-17 14:46 42.485811 -104.552747 125 11891ft 236kts
11-Jan-17 14:47 42.446394 -104.482270 114 11897ft 236kts
11-Jan-17 14:48 42.406627 -104.406385 119 11909ft 267kts
11-Jan-17 14:49 42.360832 -104.321722 132 11909ft 294kts
11-Jan-17 14:50 42.311222 -104.232402 131 11905ft 301kts
11-Jan-17 14:51 42.261328 -104.141777 131 11906ft 303kts
11-Jan-17 14:52 42.211596 -104.051647 131 11907ft 303kts
11-Jan-17 14:53 42.162118 -103.961948 133 11901ft 300kts
11-Jan-17 14:54 42.112356 -103.872800 131 11907ft 298kts
11-Jan-17 14:55 42.064271 -103.786375 132 11914ft 293kts
11-Jan-17 14:56 42.017197 -103.702095 132 11963ft 291kts
11-Jan-17 14:57 41.970466 -103.618699 132 11966ft 291kts
11-Jan-17 14:58 41.923567 -103.535317 131 11331ft 312kts
11-Jan-17 14:59 41.873972 -103.464826 169 8597ft 263kts
11-Jan-17 15:00 41.839868 -103.518170 283 5693ft 216kts
11-Jan-17 15:01 41.859603 -103.575781 322 4095ft 126kts
11-Jan-17 15:02 41.873242 -103.593721 258 3955ft 18kts
11-Jan-17 15:03 41.871519 -103.594802 59 3952ft 0kts
11-Jan-17 15:04 41.871519 -103.594802 59 3952ft 0kts
11-Jan-17 15:05 41.871519 -103.594802 59 3952ft 0kts
11-Jan-17 15:06 41.871519 -103.594802 59 3952ft 0kts
11-Jan-17 15:07 41.871519 -103.594802 59 3952ft 0kts
11-Jan-17 15:08 41.871519 -103.594802 59 3952ft 0kts
11-Jan-17 15:09 41.871519 -103.594802 59 3952ft 0kts
11-Jan-17 15:10 41.871519 -103.594802 59 3952ft 0kts
11-Jan-17 15:11 41.871519 -103.594802 59 3952ft 0kts
11-Jan-17 15:12 41.871519 -103.594802 59 3952ft 0kts
11-Jan-17 15:13 41.871519 -103.594802 59 3952ft 0kts
11-Jan-17 15:14 41.871519 -103.594802 59 3952ft 0kts
11-Jan-17 15:15 41.871519 -103.594802 59 3952ft 0kts
11-Jan-17 15:16 41.871519 -103.594802 59 3952ft 0kts

Navigation Log

Ident Type
1. KGCC Airport
2. GCC Navaid
3. JUGIP Fix
4. TOOKE Fix
5. IIP Navaid
6. IIP Navaid
7. POKSY Fix
8. Navaid
9. KACTI Fix
10. BFF Navaid
11. KBFF Airport